Time;durP1;ratioP1;P1;durP2;ratioP2;P2;SDS_P1;SDS_P2;PMS_P1;PMS_P2;Temp;Humidity;BMP_temperature;BMP_pressure;BME280_temperature;BME280_humidity;BME280_pressure;Samples;Min_cycle;Max_cycle;Signal;HPM_P1;HPM_P2
2023/07/02 00:01:58;;;;;;;7.97;1.55;;;;;;;17.88;100.00;96789.59;5052307;28;20423;-73
2023/07/02 00:04:23;;;;;;;1.73;0.98;;;;;;;17.84;100.00;96779.25;5052165;28;20123;-74
2023/07/02 00:06:50;;;;;;;0.17;0.17;;;;;;;17.85;100.00;96786.34;5052220;28;20028;-74
2023/07/02 00:09:16;;;;;;;3.40;0.70;;;;;;;17.84;100.00;96774.66;5052467;28;20602;-73
2023/07/02 00:11:45;;;;;;;1.00;0.73;;;;;;;17.90;100.00;96788.59;5070024;28;20103;-74
2023/07/02 00:14:12;;;;;;;0.68;0.40;;;;;;;17.88;100.00;96781.47;5052561;28;20511;-73
2023/07/02 00:16:38;;;;;;;0.60;0.60;;;;;;;17.90;100.00;96786.75;5070116;28;20032;-74
2023/07/02 00:19:04;;;;;;;2.00;1.13;;;;;;;17.90;100.00;96780.47;5052250;28;20044;-74
2023/07/02 00:21:32;;;;;;;5.97;1.58;;;;;;;17.83;100.00;96773.00;5069701;28;20090;-73
2023/07/02 00:23:58;;;;;;;1.17;0.88;;;;;;;17.90;100.00;96783.19;5052660;28;20103;-74
2023/07/02 00:26:25;;;;;;;0.45;0.45;;;;;;;17.82;100.00;96779.41;5052054;28;20488;-74
2023/07/02 00:28:55;;;;;;;0.40;0.40;;;;;;;17.85;100.00;96781.78;5052372;28;20028;-72
2023/07/02 00:31:21;;;;;;;0.50;0.50;;;;;;;17.87;100.00;96773.53;5052099;28;20024;-73
2023/07/02 00:33:47;;;;;;;0.52;0.40;;;;;;;17.87;100.00;96770.81;5069746;28;20412;-73
2023/07/02 00:36:16;;;;;;;1.48;0.73;;;;;;;17.79;100.00;96771.59;5051887;28;20381;-72
2023/07/02 00:38:42;;;;;;;6.35;1.45;;;;;;;17.78;100.00;96763.66;5052375;28;20472;-73
2023/07/02 00:41:09;;;;;;;1.60;0.68;;;;;;;17.74;100.00;96757.72;5035993;28;20488;-73
2023/07/02 00:43:34;;;;;;;1.35;1.15;;;;;;;17.76;100.00;96752.97;5055667;28;20476;-72
2023/07/02 00:46:00;;;;;;;1.30;0.60;;;;;;;17.75;100.00;96747.72;5039021;28;20035;-73
2023/07/02 00:48:26;;;;;;;0.20;0.20;;;;;;;17.81;100.00;96764.16;5055169;28;20028;-73
2023/07/02 00:50:52;;;;;;;2.40;0.50;;;;;;;17.78;100.00;96758.25;5055417;28;20024;-72
2023/07/02 00:53:17;;;;;;;0.60;0.55;;;;;;;17.76;100.00;96755.69;5055511;28;20365;-73
2023/07/02 00:55:43;;;;;;;1.40;0.57;;;;;;;17.75;100.00;96750.41;5073012;28;20020;-72
2023/07/02 00:58:09;;;;;;;1.23;0.60;;;;;;;17.78;100.00;96750.94;5038607;28;20507;-73
2023/07/02 01:00:35;;;;;;;2.90;0.95;;;;;;;17.82;100.00;96760.47;5038493;28;20111;-73
2023/07/02 01:03:01;;;;;;;3.13;1.55;;;;;;;17.84;100.00;96758.44;5055082;28;20028;-72
2023/07/02 01:05:35;;;;;;;5.78;1.30;;;;;;;17.89;100.00;96760.69;5038497;28;20024;-72
2023/07/02 01:08:02;;;;;;;2.05;0.90;;;;;;;17.88;100.00;96756.25;5039334;28;20400;-72
2023/07/02 01:10:27;;;;;;;1.67;1.02;;;;;;;17.88;100.00;96764.38;5038427;28;20124;-73
2023/07/02 01:12:54;;;;;;;0.52;0.52;;;;;;;17.87;100.00;96760.00;5054944;28;20463;-72
2023/07/02 01:15:19;;;;;;;1.33;1.08;;;;;;;17.90;100.00;96767.78;5072300;28;20040;-73
2023/07/02 01:17:46;;;;;;;1.00;0.80;;;;;;;17.84;100.00;96758.44;5054709;28;20028;-72
2023/07/02 01:20:13;;;;;;;0.50;0.50;;;;;;;17.88;100.00;96762.53;5055174;28;20109;-72
2023/07/02 01:22:38;;;;;;;0.85;0.35;;;;;;;17.83;100.00;96767.56;5037814;28;20040;-73
2023/07/02 01:25:05;;;;;;;0.93;0.73;;;;;;;17.82;100.00;96771.28;5055036;28;20033;-72
2023/07/02 01:27:31;;;;;;;1.30;0.73;;;;;;;17.92;100.00;96781.16;5072926;28;20094;-72
2023/07/02 01:29:57;;;;;;;3.28;0.90;;;;;;;17.91;100.00;96784.84;5054566;28;20036;-73
2023/07/02 01:32:23;;;;;;;1.13;0.60;;;;;;;17.95;100.00;96791.66;5072454;28;20032;-73
2023/07/02 01:34:49;;;;;;;1.08;0.60;;;;;;;17.97;100.00;96784.22;5072354;28;20021;-74
2023/07/02 01:37:16;;;;;;;0.63;0.63;;;;;;;17.94;100.00;96789.94;5037920;28;20042;-73
2023/07/02 01:39:42;;;;;;;0.60;0.60;;;;;;;17.90;100.00;96778.63;5054954;28;20496;-73
2023/07/02 01:42:14;;;;;;;1.50;0.85;;;;;;;17.99;100.00;96783.06;5054477;28;20064;-73
2023/07/02 01:44:40;;;;;;;21.55;1.05;;;;;;;17.98;100.00;96769.69;5038023;28;20032;-73
2023/07/02 01:47:05;;;;;;;0.30;0.30;;;;;;;18.00;100.00;96771.22;5054167;28;20042;-73
2023/07/02 01:49:32;;;;;;;3.20;1.20;;;;;;;18.02;100.00;96765.66;5054262;28;20095;-73
2023/07/02 01:51:58;;;;;;;0.40;0.40;;;;;;;17.93;100.00;96766.63;5037316;28;20037;-73
2023/07/02 01:54:27;;;;;;;2.80;0.63;;;;;;;17.93;100.00;96766.63;5071515;28;20500;-73
2023/07/02 01:56:53;;;;;;;1.00;0.45;;;;;;;17.95;100.00;96761.88;5037502;28;20024;-73
2023/07/02 01:59:19;;;;;;;0.32;0.30;;;;;;;18.00;100.00;96770.38;5054181;28;20031;-73
2023/07/02 02:01:45;;;;;;;0.45;0.45;;;;;;;17.91;100.00;96746.97;5037207;28;20419;-73
2023/07/02 02:04:11;;;;;;;1.95;0.75;;;;;;;17.97;100.00;96757.16;5054019;28;20044;-73
2023/07/02 02:06:38;;;;;;;0.43;0.43;;;;;;;17.82;100.00;96746.06;5037199;28;20047;-73
2023/07/02 02:09:04;;;;;;;1.42;1.10;;;;;;;17.82;100.00;96749.63;5037602;28;20027;-73
2023/07/02 02:11:30;;;;;;;0.10;0.10;;;;;;;17.74;100.00;96751.44;5037050;28;20366;-74
2023/07/02 02:13:55;;;;;;;4.97;1.60;;;;;;;17.73;100.00;96738.91;5037409;28;20424;-73
2023/07/02 02:16:23;;;;;;;1.38;0.98;;;;;;;17.73;100.00;96749.75;5053489;28;20028;-72
2023/07/02 02:18:51;;;;;;;4.13;1.15;;;;;;;17.70;100.00;96737.38;5071542;28;20025;-72
2023/07/02 02:21:17;;;;;;;0.93;0.50;;;;;;;17.70;100.00;96745.50;5053913;28;20036;-73
2023/07/02 02:23:43;;;;;;;0.65;0.45;;;;;;;17.68;100.00;96739.41;5053710;28;20429;-73
2023/07/02 02:26:09;;;;;;;2.30;0.90;;;;;;;17.66;100.00;96727.88;5053469;28;20031;-72
2023/07/02 02:28:34;;;;;;;17.23;2.25;;;;;;;17.63;100.00;96732.75;5053485;28;20032;-73
2023/07/02 02:31:00;;;;;;;0.50;0.50;;;;;;;17.60;100.00;96722.25;5071090;28;20207;-73
2023/07/02 02:33:26;;;;;;;0.17;0.17;;;;;;;17.62;100.00;96731.94;5053323;28;20052;-73
2023/07/02 02:35:51;;;;;;;0.63;0.63;;;;;;;17.63;100.00;96728.19;5067171;28;20029;-73
2023/07/02 02:38:17;;;;;;;1.02;0.43;;;;;;;17.73;100.00;96738.91;5053764;28;20020;-72
2023/07/02 02:40:42;;;;;;;2.85;0.65;;;;;;;17.83;100.00;96743.22;5036628;28;20024;-73
2023/07/02 02:43:08;;;;;;;0.65;0.65;;;;;;;17.88;100.00;96738.19;5036609;28;20451;-73
2023/07/02 02:45:33;;;;;;;0.85;0.38;;;;;;;17.87;100.00;96736.47;5036718;28;20503;-73
2023/07/02 02:47:59;;;;;;;0.40;0.40;;;;;;;17.93;100.00;96735.00;5071213;28;20034;-73
2023/07/02 02:50:24;;;;;;;0.98;0.57;;;;;;;17.94;100.00;96749.34;5071301;28;20031;-73
2023/07/02 02:52:50;;;;;;;0.50;0.50;;;;;;;18.01;100.00;96742.31;5053091;28;20027;-73
2023/07/02 02:55:15;;;;;;;1.67;0.52;;;;;;;18.04;100.00;96742.84;5053177;28;20496;-73
2023/07/02 02:57:42;;;;;;;0.90;0.47;;;;;;;18.11;100.00;96727.66;5052937;28;20038;-74
2023/07/02 03:00:09;;;;;;;0.73;0.65;;;;;;;18.13;100.00;96728.34;5053289;28;20039;-73
2023/07/02 03:02:35;;;;;;;0.98;0.63;;;;;;;18.17;100.00;96726.16;5066387;28;20407;-73
2023/07/02 03:05:02;;;;;;;0.98;0.65;;;;;;;18.17;100.00;96720.75;5052828;28;20028;-74
2023/07/02 03:07:28;;;;;;;0.93;0.63;;;;;;;18.21;100.00;96720.25;5070982;28;20020;-73
2023/07/02 03:09:53;;;;;;;2.38;0.60;;;;;;;18.29;100.00;96730.28;5036239;28;20028;-73
2023/07/02 03:12:19;;;;;;;11.07;2.05;;;;;;;18.24;100.00;96728.03;5070578;28;20012;-73
2023/07/02 03:14:44;;;;;;;0.75;0.65;;;;;;;18.38;100.00;96729.28;5036005;28;20527;-72
2023/07/02 03:17:10;;;;;;;1.63;0.88;;;;;;;18.39;100.00;96731.00;5066682;28;20040;-74
2023/07/02 03:19:35;;;;;;;0.40;0.40;;;;;;;18.34;100.00;96717.06;5052634;28;20219;-73
2023/07/02 03:22:01;;;;;;;1.83;1.10;;;;;;;18.28;100.00;96726.72;5052865;28;20028;-73
2023/07/02 03:24:26;;;;;;;2.58;1.02;;;;;;;18.35;100.00;96713.38;5052977;28;20048;-73
2023/07/02 03:26:52;;;;;;;2.53;1.17;;;;;;;18.39;100.00;96715.56;5070353;28;20028;-73
2023/07/02 03:29:20;;;;;;;1.02;0.80;;;;;;;18.45;100.00;96727.63;5052525;28;20569;-73
2023/07/02 03:31:46;;;;;;;0.73;0.45;;;;;;;18.43;100.00;96730.50;5053046;28;20017;-73
2023/07/02 03:34:12;;;;;;;2.83;1.45;;;;;;;18.51;100.00;96739.69;5052524;28;20072;-73
2023/07/02 03:36:37;;;;;;;0.73;0.55;;;;;;;18.55;100.00;96741.91;5052504;28;20056;-73
2023/07/02 03:39:04;;;;;;;0.70;0.38;;;;;;;18.55;100.00;96747.31;5052670;28;20108;-73
2023/07/02 03:41:29;;;;;;;1.35;1.23;;;;;;;18.46;100.00;96752.88;5052560;28;20029;-73
2023/07/02 03:43:55;;;;;;;1.33;0.90;;;;;;;18.47;100.00;96754.53;5052696;28;20111;-73
2023/07/02 03:46:20;;;;;;;0.40;0.40;;;;;;;18.62;100.00;96774.59;5052609;28;20040;-73
2023/07/02 03:48:46;;;;;;;0.52;0.43;;;;;;;18.55;100.00;96766.28;5052443;28;20028;-73
2023/07/02 03:51:14;;;;;;;1.00;0.55;;;;;;;18.58;100.00;96751.59;5070372;28;20044;-73
2023/07/02 03:53:41;;;;;;;2.58;0.60;;;;;;;18.48;100.00;96742.72;5052629;28;20110;-72
2023/07/02 03:56:06;;;;;;;0.55;0.45;;;;;;;18.55;100.00;96744.63;5052208;28;20035;-72
2023/07/02 03:58:32;;;;;;;2.38;1.20;;;;;;;18.50;100.00;96728.00;5070348;28;20381;-72
2023/07/02 04:00:57;;;;;;;11.57;2.42;;;;;;;18.56;100.00;96746.31;5069922;28;20031;-73
2023/07/02 04:03:23;;;;;;;2.50;1.27;;;;;;;18.55;100.00;96760.88;5052171;28;20029;-74
2023/07/02 04:05:48;;;;;;;1.15;1.02;;;;;;;18.60;100.00;96772.06;5052056;28;20412;-73
2023/07/02 04:08:15;;;;;;;0.73;0.70;;;;;;;18.64;100.00;96759.88;5070042;28;20510;-74
2023/07/02 04:10:41;;;;;;;2.38;1.38;;;;;;;18.70;100.00;96745.69;5052281;28;20153;-74
2023/07/02 04:13:09;;;;;;;0.55;0.35;;;;;;;18.89;100.00;96747.25;5032257;28;20511;-75
2023/07/02 04:15:35;;;;;;;3.53;1.48;;;;;;;18.95;100.00;96739.31;5035603;28;20396;-73
2023/07/02 04:18:01;;;;;;;0.47;0.47;;;;;;;19.04;100.00;96748.28;5039212;28;20043;-74
2023/07/02 04:20:28;;;;;;;1.10;0.57;;;;;;;19.13;100.00;96757.31;5056064;28;20020;-74
2023/07/02 04:22:54;;;;;;;1.55;0.55;;;;;;;19.18;100.00;96750.38;5056089;28;20107;-74
2023/07/02 04:25:19;;;;;;;0.47;0.47;;;;;;;19.22;100.00;96750.88;5039120;28;20460;-75
2023/07/02 04:27:45;;;;;;;0.20;0.17;;;;;;;19.32;100.00;96757.81;5055724;28;20119;-74
2023/07/02 04:30:12;;;;;;;18.90;7.32;;;;;;;19.39;100.00;96763.44;5055728;28;20027;-74
2023/07/02 04:32:41;;;;;;;19.75;6.20;;;;;;;19.49;100.00;96761.44;5055880;28;20021;-74
2023/07/02 04:35:07;;;;;;;20.42;8.82;;;;;;;19.55;100.00;96759.91;5055588;28;20043;-73
2023/07/02 04:37:33;;;;;;;14.02;6.60;;;;;;;19.69;100.00;96764.63;5055735;28;20047;-74
2023/07/02 04:39:59;;;;;;;12.57;6.78;;;;;;;19.78;100.00;96769.06;5038666;28;20055;-74
2023/07/02 04:42:28;;;;;;;16.95;7.35;;;;;;;19.80;100.00;96767.88;5039122;28;20027;-73
2023/07/02 04:44:54;;;;;;;13.73;7.25;;;;;;;19.93;100.00;96760.03;5073192;28;20408;-73
2023/07/02 04:47:20;;;;;;;14.98;7.22;;;;;;;20.03;100.00;96766.13;5038858;28;20055;-73
2023/07/02 04:49:46;;;;;;;14.68;6.07;;;;;;;20.03;100.00;96763.41;5055597;28;20154;-74
2023/07/02 04:52:12;;;;;;;15.50;6.45;;;;;;;20.18;100.00;96773.59;5055191;28;20028;-73
2023/07/02 04:54:37;;;;;;;16.35;6.68;;;;;;;20.23;100.00;96758.47;5055112;28;20440;-73
2023/07/02 04:57:04;;;;;;;15.70;6.78;;;;;;;20.26;100.00;96751.88;5055432;28;20135;-73
2023/07/02 04:59:30;;;;;;;17.33;7.25;;;;;;;20.29;100.00;96763.22;5050957;28;20137;-74
2023/07/02 05:01:55;;;;;;;30.95;15.18;;;;;;;20.31;100.00;96757.59;5055107;28;20037;-75
2023/07/02 05:04:21;;;;;;;17.20;7.57;;;;;;;20.39;100.00;96766.59;5073156;28;20182;-74
2023/07/02 05:06:46;;;;;;;14.02;5.75;;;;;;;20.46;100.00;96758.56;5038334;28;20025;-74
2023/07/02 05:09:12;;;;;;;12.15;6.30;;;;;;;20.57;100.00;96766.38;5054912;28;20430;-73
2023/07/02 05:11:37;;;;;;;19.15;10.88;;;;;;;20.65;100.00;96757.31;5068778;28;20044;-73
2023/07/02 05:14:03;;;;;;;16.95;7.95;;;;;;;20.63;100.00;96765.66;5038123;28;20037;-74
2023/07/02 05:16:28;;;;;;;13.35;5.72;;;;;;;20.61;100.00;96762.25;5054984;28;20086;-73
2023/07/02 05:18:54;;;;;;;13.10;5.97;;;;;;;20.45;100.00;96762.34;5072560;28;20437;-74
2023/07/02 05:21:19;;;;;;;10.82;6.90;;;;;;;20.51;100.00;96767.91;5069060;28;20031;-73
2023/07/02 05:23:45;;;;;;;18.73;6.45;;;;;;;20.48;100.00;96783.72;5054582;28;20036;-76
2023/07/02 05:26:10;;;;;;;12.32;6.97;;;;;;;20.52;100.00;96780.47;5054238;28;20032;-73
2023/07/02 05:28:36;;;;;;;10.60;6.40;;;;;;;20.57;100.00;96792.69;5054613;28;20025;-75
2023/07/02 05:31:01;;;;;;;27.98;13.63;;;;;;;20.52;100.00;96779.59;5072542;28;20172;-76
2023/07/02 05:33:27;;;;;;;14.52;6.68;;;;;;;20.59;100.00;96780.59;5054557;28;20044;-74
2023/07/02 05:35:53;;;;;;;9.05;5.50;;;;;;;20.63;100.00;96787.41;5054942;28;20028;-73
2023/07/02 05:38:19;;;;;;;12.05;6.25;;;;;;;20.66;100.00;96787.03;5054442;28;20554;-73
2023/07/02 05:40:45;;;;;;;32.97;15.90;;;;;;;20.69;100.00;96770.38;5037963;28;20020;-74
2023/07/02 05:43:10;;;;;;;79.53;44.65;;;;;;;20.72;100.00;96780.06;5072103;28;20024;-75
2023/07/02 05:45:36;;;;;;;16.40;6.88;;;;;;;20.84;100.00;96782.19;5054608;28;20491;-77
2023/07/02 05:48:01;;;;;;;19.50;7.45;;;;;;;20.96;100.00;96783.50;5038137;28;20032;-76
2023/07/02 05:50:27;;;;;;;18.20;7.95;;;;;;;21.04;100.00;96775.28;5054054;28;20561;-75
2023/07/02 05:52:52;;;;;;;13.07;7.03;;;;;;;21.22;100.00;96776.94;5071989;28;20020;-75
2023/07/02 05:55:18;;;;;;;10.27;6.22;;;;;;;21.35;100.00;96777.19;5037417;28;20036;-75
2023/07/02 05:57:44;;;;;;;23.83;9.82;;;;;;;21.45;100.00;96765.03;5053952;28;20119;-75
2023/07/02 06:00:10;;;;;;;13.82;6.30;;;;;;;21.61;100.00;96766.78;5037676;28;20494;-75
2023/07/02 06:02:36;;;;;;;13.13;7.72;;;;;;;21.70;100.00;96768.41;5071453;28;20476;-75
2023/07/02 06:05:01;;;;;;;14.73;6.18;;;;;;;21.75;100.00;96776.84;5054064;28;20091;-75
2023/07/02 06:07:28;;;;;;;17.02;6.95;;;;;;;21.85;100.00;96780.19;5035342;28;20036;-75
2023/07/02 06:09:53;;;;;;;17.20;6.45;;;;;;;21.81;100.00;96776.13;5036472;28;20103;-74
2023/07/02 06:12:20;;;;;;;10.10;6.70;;;;;;;21.69;100.00;96771.31;5053743;28;20032;-74
2023/07/02 06:14:46;;;;;;;16.38;6.88;;;;;;;21.81;100.00;96772.56;5054110;28;20024;-75
2023/07/02 06:17:11;;;;;;;10.68;6.00;;;;;;;21.87;100.00;96772.66;5053883;28;20093;-75
2023/07/02 06:19:37;;;;;;;40.35;21.38;;;;;;;21.98;100.00;96774.13;5036876;28;20036;-76
2023/07/02 06:22:03;;;;;;;18.60;8.80;;;;;;;22.05;100.00;96778.69;5053783;28;20035;-74
2023/07/02 06:24:29;;;;;;;12.32;5.95;;;;;;;22.02;100.00;96764.56;5053434;28;20036;-74
2023/07/02 06:26:54;;;;;;;16.73;8.82;;;;;;;22.15;100.00;96765.63;5053721;28;20171;-74
2023/07/02 06:29:21;;;;;;;14.05;8.07;;;;;;;22.18;100.00;96764.38;5071546;28;20030;-76
2023/07/02 06:31:46;;;;;;;14.20;6.75;;;;;;;22.33;100.00;96753.53;5053270;28;20024;-77
2023/07/02 06:34:12;;;;;;;14.48;6.03;;;;;;;22.63;100.00;96747.03;5037211;28;20425;-76
2023/07/02 06:36:37;;;;;;;15.38;6.35;;;;;;;22.82;100.00;96724.66;5053394;28;20062;-75
2023/07/02 06:39:03;;;;;;;11.20;4.68;;;;;;;23.12;100.00;96720.81;5052854;28;20484;-77
2023/07/02 06:41:28;;;;;;;8.02;3.35;;;;;;;23.43;100.00;96723.25;5052311;28;20032;-75
2023/07/02 06:43:54;;;;;;;7.10;3.47;;;;;;;23.80;100.00;96730.31;5069809;28;20086;-75
2023/07/02 06:46:19;;;;;;;11.48;4.32;;;;;;;24.31;100.00;96719.16;5037075;28;20467;-78
2023/07/02 06:48:45;;;;;;;42.30;25.00;;;;;;;24.84;100.00;96721.16;5053271;28;20067;-76
2023/07/02 06:51:14;;;;;;;12.25;5.80;;;;;;;25.17;100.00;96713.06;5033999;28;20043;-76
2023/07/02 06:53:42;;;;;;;26.05;17.40;;;;;;;25.41;100.00;96728.09;5036879;28;20025;-76
2023/07/02 06:56:09;;;;;;;7.57;4.55;;;;;;;25.49;100.00;96712.34;5050416;28;20385;-76
2023/07/02 06:58:35;;;;;;;14.48;6.00;;;;;;;25.79;100.00;96710.03;5036444;28;20093;-76
2023/07/02 07:01:01;;;;;;;18.05;10.85;;;;;;;25.87;100.00;96731.75;5050266;28;20032;-76
2023/07/02 07:03:26;;;;;;;11.77;6.88;;;;;;;25.75;100.00;96733.41;5052857;28;20431;-77
2023/07/02 07:05:52;;;;;;;17.30;10.00;;;;;;;25.76;100.00;96738.69;5052775;28;20036;-77
2023/07/02 07:08:18;;;;;;;11.55;5.15;;;;;;;25.96;100.00;96743.34;5068130;28;20450;-75
2023/07/02 07:10:45;;;;;;;11.77;4.60;;;;;;;26.45;100.00;96746.50;5033522;28;20024;-76
2023/07/02 07:13:11;;;;;;;12.23;5.40;;;;;;;27.51;100.00;96749.75;5036459;28;20458;-76
2023/07/02 07:15:36;;;;;;;8.10;4.28;;;;;;;29.52;94.57;96720.47;5053122;28;20143;-75
2023/07/02 07:18:02;;;;;;;64.07;42.08;;;;;;;31.57;75.80;96708.25;5070765;28;20036;-75
2023/07/02 07:20:28;;;;;;;7.50;4.15;;;;;;;33.57;60.62;96693.31;5036060;28;20047;-75
2023/07/02 07:22:54;;;;;;;14.55;10.88;;;;;;;33.75;58.07;96699.38;5055153;28;20049;-76
2023/07/02 07:25:19;;;;;;;9.18;5.85;;;;;;;32.94;57.68;96699.47;5036051;28;20549;-76
2023/07/02 07:27:45;;;;;;;10.23;5.00;;;;;;;32.95;56.82;96695.59;5052916;28;20038;-78
2023/07/02 07:30:11;;;;;;;11.10;6.80;;;;;;;34.30;52.50;96701.03;5052750;28;20031;-77
2023/07/02 07:32:36;;;;;;;6.75;4.05;;;;;;;35.64;46.86;96687.34;5036068;28;20028;-77
2023/07/02 07:35:02;;;;;;;10.73;5.50;;;;;;;34.70;47.42;96673.53;5035696;28;20500;-77
2023/07/02 07:37:28;;;;;;;6.20;4.43;;;;;;;33.66;50.30;96683.44;5052748;28;20021;-75
2023/07/02 07:39:53;;;;;;;8.23;3.53;;;;;;;32.77;53.52;96693.94;5052519;28;20020;-76
2023/07/02 07:42:19;;;;;;;5.78;3.85;;;;;;;32.22;54.84;96705.84;5052641;28;20021;-76
2023/07/02 07:44:46;;;;;;;6.18;3.50;;;;;;;31.92;57.79;96708.06;5035972;28;20031;-74
2023/07/02 07:47:12;;;;;;;6.60;3.53;;;;;;;31.81;59.21;96708.13;5035518;28;20471;-75
2023/07/02 07:49:37;;;;;;;9.88;4.75;;;;;;;31.87;57.59;96716.25;5070140;28;20060;-76
2023/07/02 07:52:03;;;;;;;6.13;4.10;;;;;;;31.66;61.52;96717.81;5055959;28;20039;-75
2023/07/02 07:54:29;;;;;;;6.75;3.35;;;;;;;30.89;65.79;96715.59;5039636;28;20060;-75
2023/07/02 07:56:54;;;;;;;8.85;4.00;;;;;;;30.77;71.62;96723.91;5039075;28;20060;-75
2023/07/02 07:59:20;;;;;;;5.70;3.83;;;;;;;30.34;66.24;96707.69;5056130;28;20521;-76
2023/07/02 08:01:46;;;;;;;6.18;3.63;;;;;;;29.86;66.74;96715.31;5056059;28;20108;-77
2023/07/02 08:04:12;;;;;;;14.30;3.70;;;;;;;30.30;72.04;96723.06;5037818;28;20029;-76
2023/07/02 08:06:38;;;;;;;6.03;3.38;;;;;;;31.01;61.58;96709.00;5055796;28;20054;-76
2023/07/02 08:09:03;;;;;;;5.32;3.20;;;;;;;30.89;66.79;96716.44;5055877;28;20031;-76
2023/07/02 08:11:29;;;;;;;5.55;3.35;;;;;;;31.32;62.12;96720.69;5039502;28;20020;-77
2023/07/02 08:13:54;;;;;;;4.72;2.97;;;;;;;31.36;60.90;96716.34;5055656;28;20052;-76
2023/07/02 08:16:20;;;;;;;4.18;2.95;;;;;;;31.03;62.30;96722.59;5055897;28;20032;-75
2023/07/02 08:18:45;;;;;;;7.53;3.40;;;;;;;31.34;63.58;96710.25;5039148;28;20028;-75
2023/07/02 08:21:11;;;;;;;4.60;2.58;;;;;;;32.28;55.11;96708.69;5055278;28;20063;-75
2023/07/02 08:23:37;;;;;;;3.65;2.75;;;;;;;32.59;52.84;96700.63;5055676;28;20411;-75
2023/07/02 08:26:03;;;;;;;3.60;2.45;;;;;;;32.15;56.33;96704.31;5038766;28;20036;-75
2023/07/02 08:28:28;;;;;;;5.43;2.88;;;;;;;31.67;56.96;96705.69;5073546;28;20033;-75
2023/07/02 08:30:54;;;;;;;3.90;2.78;;;;;;;30.29;66.47;96723.31;5038807;28;20028;-77
2023/07/02 08:33:20;;;;;;;4.72;3.05;;;;;;;29.55;73.78;96730.19;5038630;28;20048;-76
2023/07/02 08:35:46;;;;;;;6.20;3.88;;;;;;;28.97;78.45;96721.63;5038671;28;20040;-76
2023/07/02 08:38:11;;;;;;;5.82;3.45;;;;;;;28.83;79.70;96726.41;5055304;28;20461;-76
2023/07/02 08:40:37;;;;;;;8.02;3.70;;;;;;;28.48;82.86;96733.56;5055481;28;20032;-76
2023/07/02 08:43:03;;;;;;;6.32;2.90;;;;;;;28.35;83.29;96739.19;5055187;28;20032;-76
2023/07/02 08:45:29;;;;;;;5.53;3.40;;;;;;;27.98;88.76;96744.56;5055156;28;20073;-75
2023/07/02 08:47:56;;;;;;;4.80;3.30;;;;;;;27.80;92.29;96746.41;5038506;28;20485;-76
2023/07/02 08:50:23;;;;;;;5.90;3.35;;;;;;;27.64;93.56;96746.91;5055087;28;20032;-76
2023/07/02 08:52:48;;;;;;;6.97;3.85;;;;;;;27.33;93.13;96740.31;5038454;28;20020;-76
2023/07/02 08:55:14;;;;;;;6.05;3.40;;;;;;;27.34;96.63;96739.25;5038441;28;20032;-76
2023/07/02 08:57:42;;;;;;;5.95;3.70;;;;;;;27.23;99.71;96748.16;5038314;28;20442;-76
2023/07/02 09:00:11;;;;;;;7.65;3.38;;;;;;;27.30;95.74;96740.75;5055548;28;20036;-75
2023/07/02 09:02:37;;;;;;;4.65;3.28;;;;;;;27.32;95.94;96733.13;5054167;28;20040;-76
2023/07/02 09:05:03;;;;;;;7.57;3.88;;;;;;;27.46;94.82;96733.94;5038430;28;20037;-75
2023/07/02 09:07:29;;;;;;;6.47;3.10;;;;;;;27.64;93.43;96727.69;5054715;28;20059;-75
2023/07/02 09:09:54;;;;;;;5.32;3.45;;;;;;;28.13;91.45;96730.50;5055083;28;20055;-76
2023/07/02 09:12:31;;;;;;;7.28;4.18;;;;;;;28.40;87.07;96731.94;5037807;28;20032;-75
2023/07/02 09:14:57;;;;;;;6.88;3.65;;;;;;;28.73;88.44;96726.09;5038189;28;20020;-76
2023/07/02 09:17:30;;;;;;;9.18;3.47;;;;;;;28.87;87.73;96721.31;5054284;28;20066;-76
2023/07/02 09:19:57;;;;;;;6.53;3.88;;;;;;;29.10;85.10;96704.06;5054723;28;20111;-76
2023/07/02 09:22:23;;;;;;;5.30;3.55;;;;;;;29.50;81.75;96706.06;5037720;28;20488;-75
2023/07/02 09:24:57;;;;;;;6.10;3.75;;;;;;;29.66;82.69;96707.31;5038114;28;20054;-76
2023/07/02 09:27:39;;;;;;;4.88;3.35;;;;;;;30.08;77.19;96719.22;5054617;28;20032;-75
2023/07/02 09:30:15;;;;;;;;;;;;;;;30.19;76.36;96715.63;5038138;28;20496;-75
2023/07/02 09:32:42;;;;;;;6.82;4.10;;;;;;;30.34;71.16;96710.47;5037985;28;20415;-76
2023/07/02 09:35:08;;;;;;;8.82;3.83;;;;;;;29.85;71.01;96703.44;5037819;28;20043;-75
2023/07/02 09:37:34;;;;;;;11.38;4.35;;;;;;;29.26;72.60;96698.78;5045890;28;20453;-75
2023/07/02 09:40:00;;;;;;;3.90;3.00;;;;;;;28.92;77.47;96707.66;5037680;28;20036;-75
2023/07/02 09:42:26;;;;;;;8.35;3.75;;;;;;;28.84;81.28;96716.25;5053681;28;20471;-76
2023/07/02 09:44:59;;;;;;;7.40;3.75;;;;;;;29.32;79.46;96699.75;5037691;28;20020;-75
2023/07/02 09:47:26;;;;;;;6.63;3.85;;;;;;;29.63;76.23;96712.47;5037529;28;20484;-76
2023/07/02 09:49:55;;;;;;;7.20;4.15;;;;;;;29.74;77.83;96709.75;5054363;28;20024;-75
2023/07/02 09:52:21;;;;;;;12.10;7.03;;;;;;;29.87;79.34;96705.97;5072236;28;20051;-75
2023/07/02 09:54:47;;;;;;;6.00;3.92;;;;;;;30.06;74.69;96696.50;5037090;28;20479;-76
2023/07/02 09:57:13;;;;;;;22.98;16.58;;;;;;;30.24;74.03;96707.44;5037406;28;20131;-77
2023/07/02 09:59:40;;;;;;;6.47;4.63;;;;;;;30.40;69.64;96700.41;5053899;28;20025;-76
2023/07/02 10:02:06;;;;;;;9.07;4.63;;;;;;;30.57;69.60;96696.69;5054171;28;20111;-75
2023/07/02 10:04:42;;;;;;;5.47;3.88;;;;;;;30.54;65.64;96694.41;5036193;28;20048;-75
2023/07/02 10:07:08;;;;;;;8.27;4.32;;;;;;;30.78;63.65;96686.09;5048021;28;20404;-77
2023/07/02 10:09:35;;;;;;;8.82;4.00;;;;;;;31.01;70.34;96697.13;5036796;28;20043;-76
2023/07/02 10:12:01;;;;;;;7.05;4.30;;;;;;;31.32;64.50;96688.34;5036804;28;20459;-76
2023/07/02 10:14:26;;;;;;;8.95;4.45;;;;;;;31.73;58.00;96680.84;5052806;28;20036;-76
2023/07/02 10:16:53;;;;;;;12.05;4.90;;;;;;;32.57;57.79;96674.28;5036774;28;20032;-76
2023/07/02 10:19:19;;;;;;;8.10;4.25;;;;;;;33.39;51.00;96666.78;5053688;28;20597;-76
2023/07/02 10:21:52;;;;;;;13.00;5.00;;;;;;;35.52;47.31;96671.97;5053274;28;20067;-75
2023/07/02 10:24:18;;;;;;;6.78;4.85;;;;;;;37.49;40.74;96646.75;5037655;28;20492;-77
2023/07/02 10:27:00;;;;;;;5.38;4.20;;;;;;;38.55;38.54;96652.41;5053289;28;20032;-75
2023/07/02 10:29:28;;;;;;;18.80;10.77;;;;;;;38.25;37.96;96641.47;5036720;28;20040;-77
2023/07/02 10:31:57;;;;;;;8.95;4.00;;;;;;;38.45;37.16;96635.75;5053154;28;20537;-78
2023/07/02 10:34:30;;;;;;;7.82;5.28;;;;;;;38.26;38.23;96637.56;5045960;28;20052;-77
2023/07/02 10:36:56;;;;;;;7.50;3.88;;;;;;;38.52;36.76;96627.81;5036381;28;20020;-76
2023/07/02 10:39:22;;;;;;;5.15;3.65;;;;;;;38.79;36.59;96625.34;5036809;28;20512;-76
2023/07/02 10:41:49;;;;;;;5.38;4.05;;;;;;;38.34;38.40;96629.38;5036479;28;20036;-76
2023/07/02 10:44:15;;;;;;;6.55;4.10;;;;;;;38.41;38.30;96618.72;5036804;28;20429;-76
2023/07/02 10:46:47;;;;;;;6.15;4.32;;;;;;;39.39;35.71;96612.56;5036434;28;20561;-77
2023/07/02 10:49:14;;;;;;;6.97;4.55;;;;;;;40.80;33.97;96606.59;5031284;28;20124;-76
2023/07/02 10:51:40;;;;;;;5.40;4.20;;;;;;;40.51;32.62;96592.88;5016778;28;20126;-77
2023/07/02 10:54:06;;;;;;;4.88;3.65;;;;;;;40.07;33.51;96601.72;5016837;28;20104;-78
2023/07/02 10:56:38;;;;;;;5.68;3.60;;;;;;;40.35;33.19;96607.44;5040590;28;20024;-78
2023/07/02 10:59:03;;;;;;;7.00;4.40;;;;;;;39.54;32.96;96597.50;5036568;28;20420;-77
2023/07/02 11:01:30;;;;;;;5.55;3.78;;;;;;;38.32;35.13;96598.09;5053106;28;20024;-76
2023/07/02 11:04:04;;;;;;;5.32;4.35;;;;;;;37.52;35.98;96607.94;5050119;28;20047;-76
2023/07/02 11:06:32;;;;;;;5.35;3.97;;;;;;;36.27;38.80;96604.44;5031684;28;20027;-76
2023/07/02 11:08:58;;;;;;;6.38;4.47;;;;;;;35.39;39.87;96617.69;5052843;28;20028;-76
2023/07/02 11:11:24;;;;;;;7.68;4.60;;;;;;;35.26;41.49;96620.97;5052780;28;20560;-76
2023/07/02 11:13:51;;;;;;;8.00;4.65;;;;;;;36.19;40.62;96613.34;5052630;28;20024;-76
2023/07/02 11:16:29;;;;;;;7.25;5.13;;;;;;;37.25;39.57;96610.31;5036123;28;20026;-76
2023/07/02 11:19:08;;;;;;;8.60;5.47;;;;;;;37.45;37.08;96604.63;5035930;28;20028;-77
2023/07/02 11:21:34;;;;;;;6.30;4.65;;;;;;;38.22;36.38;96592.59;5037489;28;20021;-79
2023/07/02 11:24:04;;;;;;;10.00;4.95;;;;;;;38.02;35.93;96594.75;5035118;28;20447;-78